DKFIS EDVE-LSGK
Flight info
| Callsign | DKFIS |
|---|---|
| Flight time | 2h 35m |
| Altitude | 12000 |
| Route | POVEL5U POVEL Z94 KENIG/N0179F100 Z20 ORTAG/N0178F090 Z117 KEGOS/N0179F100 N869 TEDGO/N0178F090 N869 NATOR/N0182F110 N869 OLBEN/N0180F100 DCT LAMUR DCT |
| Aircraft | DA42/L-SBDGRY/S |
Departure
| Time | 2026-05-07 12:51 |
|---|---|
| Airport | Braunschweig-Wolfsburg Airport (EDVE) |
Arrival
| Time | 2026-05-07 15:27 |
|---|---|
| Airport | Saanen Airfield (LSGK) |
| Time | Latitude | Longitude | Altitude | Speed | Heading |
|---|---|---|---|---|---|
| 2026-05-07 12:41 | 52.31682 | 10.55801 | 285 ft | 0 kts | 90° |
| 2026-05-07 12:47 | 52.31683 | 10.55815 | 285 ft | 4 kts | 82° |
| 2026-05-07 12:47 | 52.31708 | 10.55836 | 285 ft | 6 kts | 351° |
| 2026-05-07 12:48 | 52.31747 | 10.55789 | 287 ft | 8 kts | 266° |
| 2026-05-07 12:48 | 52.31714 | 10.55698 | 286 ft | 11 kts | 252° |
| 2026-05-07 12:48 | 52.31706 | 10.55565 | 288 ft | 16 kts | 264° |
| 2026-05-07 12:48 | 52.31696 | 10.55382 | 287 ft | 16 kts | 266° |
| 2026-05-07 12:49 | 52.31686 | 10.55207 | 288 ft | 14 kts | 264° |
| 2026-05-07 12:49 | 52.31678 | 10.55060 | 290 ft | 12 kts | 262° |
| 2026-05-07 12:49 | 52.31669 | 10.54902 | 287 ft | 17 kts | 266° |
| 2026-05-07 12:49 | 52.31663 | 10.54729 | 285 ft | 12 kts | 289° |
| 2026-05-07 12:50 | 52.31727 | 10.54684 | 287 ft | 9 kts | 354° |
| 2026-05-07 12:50 | 52.31784 | 10.54675 | 288 ft | 8 kts | 356° |
| 2026-05-07 12:50 | 52.31849 | 10.54680 | 290 ft | 10 kts | 23° |
| 2026-05-07 12:50 | 52.31874 | 10.54788 | 289 ft | 25 kts | 84° |
| 2026-05-07 12:51 | 52.31911 | 10.55405 | 287 ft | 79 kts | 86° |
| 2026-05-07 12:51 | 52.31966 | 10.56395 | 457 ft | 89 kts | 81° |
| 2026-05-07 12:51 | 52.32018 | 10.57380 | 813 ft | 85 kts | 82° |
| 2026-05-07 12:51 | 52.32067 | 10.58314 | 1198 ft | 82 kts | 79° |
| 2026-05-07 12:52 | 52.32158 | 10.59261 | 1501 ft | 88 kts | 77° |
| 2026-05-07 12:52 | 52.32270 | 10.60282 | 1767 ft | 95 kts | 82° |
| 2026-05-07 12:52 | 52.32407 | 10.61360 | 2032 ft | 100 kts | 72° |
| 2026-05-07 12:52 | 52.32627 | 10.62471 | 2298 ft | 105 kts | 71° |
| 2026-05-07 12:53 | 52.32868 | 10.63621 | 2560 ft | 109 kts | 70° |
| 2026-05-07 12:53 | 52.33120 | 10.64789 | 2824 ft | 112 kts | 70° |
| 2026-05-07 12:53 | 52.33386 | 10.66002 | 3079 ft | 115 kts | 70° |
| 2026-05-07 12:53 | 52.33658 | 10.67242 | 3342 ft | 117 kts | 71° |
| 2026-05-07 12:54 | 52.33937 | 10.68511 | 3604 ft | 119 kts | 70° |
| 2026-05-07 12:54 | 52.34218 | 10.69784 | 3866 ft | 120 kts | 70° |
| 2026-05-07 12:54 | 52.34502 | 10.71075 | 4125 ft | 122 kts | 70° |
| 2026-05-07 12:54 | 52.34790 | 10.72389 | 4390 ft | 124 kts | 70° |
| 2026-05-07 12:55 | 52.35080 | 10.73723 | 4650 ft | 126 kts | 73° |
| 2026-05-07 12:55 | 52.35063 | 10.75119 | 4912 ft | 128 kts | 106° |
| 2026-05-07 12:55 | 52.34561 | 10.76332 | 5174 ft | 131 kts | 127° |
| 2026-05-07 12:55 | 52.33960 | 10.77444 | 5425 ft | 130 kts | 128° |
| 2026-05-07 12:56 | 52.33361 | 10.78538 | 5681 ft | 129 kts | 128° |
| 2026-05-07 12:56 | 52.32736 | 10.79583 | 5942 ft | 130 kts | 140° |
| 2026-05-07 12:56 | 52.31889 | 10.80139 | 6215 ft | 136 kts | 169° |
| 2026-05-07 12:56 | 52.30938 | 10.80277 | 6481 ft | 139 kts | 172° |
| 2026-05-07 12:57 | 52.29962 | 10.80416 | 6730 ft | 143 kts | 172° |
| 2026-05-07 12:57 | 52.28956 | 10.80552 | 6973 ft | 147 kts | 173° |
| 2026-05-07 12:57 | 52.27934 | 10.80690 | 7219 ft | 148 kts | 173° |
| 2026-05-07 12:57 | 52.26926 | 10.80830 | 7460 ft | 147 kts | 172° |
| 2026-05-07 12:58 | 52.25918 | 10.80971 | 7710 ft | 144 kts | 172° |
| 2026-05-07 12:58 | 52.24926 | 10.81113 | 7958 ft | 142 kts | 172° |
| 2026-05-07 12:58 | 52.23919 | 10.81262 | 8040 ft | 152 kts | 172° |
| 2026-05-07 12:58 | 52.22827 | 10.81426 | 8047 ft | 162 kts | 172° |
| 2026-05-07 12:59 | 52.21684 | 10.81598 | 8047 ft | 167 kts | 172° |
| 2026-05-07 12:59 | 52.20519 | 10.81773 | 8049 ft | 169 kts | 172° |
| 2026-05-07 12:59 | 52.19342 | 10.81950 | 8048 ft | 170 kts | 172° |
| 2026-05-07 12:59 | 52.18175 | 10.82129 | 8049 ft | 171 kts | 173° |
| 2026-05-07 13:00 | 52.16989 | 10.82311 | 8054 ft | 172 kts | 173° |
| 2026-05-07 13:00 | 52.15796 | 10.82495 | 8047 ft | 173 kts | 172° |
| 2026-05-07 13:00 | 52.14597 | 10.82683 | 8047 ft | 173 kts | 172° |
| 2026-05-07 13:00 | 52.13399 | 10.82869 | 8053 ft | 173 kts | 172° |
| 2026-05-07 13:01 | 52.12202 | 10.83056 | 8051 ft | 173 kts | 173° |
| 2026-05-07 13:01 | 52.11002 | 10.83242 | 8052 ft | 173 kts | 172° |
| 2026-05-07 13:01 | 52.09798 | 10.83425 | 8057 ft | 174 kts | 173° |
| 2026-05-07 13:01 | 52.08585 | 10.83612 | 8048 ft | 175 kts | 173° |
| 2026-05-07 13:02 | 52.07368 | 10.83799 | 8054 ft | 176 kts | 173° |
| 2026-05-07 13:02 | 52.06164 | 10.83984 | 8056 ft | 177 kts | 173° |
| 2026-05-07 13:02 | 52.04937 | 10.84173 | 8046 ft | 177 kts | 173° |
| 2026-05-07 13:02 | 52.03700 | 10.84372 | 8045 ft | 180 kts | 173° |
| 2026-05-07 13:03 | 52.02455 | 10.84576 | 8036 ft | 180 kts | 173° |
| 2026-05-07 13:03 | 52.01202 | 10.84771 | 8032 ft | 181 kts | 173° |
| 2026-05-07 13:03 | 51.99951 | 10.84964 | 8031 ft | 180 kts | 173° |
| 2026-05-07 13:03 | 51.98711 | 10.85157 | 8030 ft | 178 kts | 173° |
| 2026-05-07 13:04 | 51.97503 | 10.85346 | 8034 ft | 176 kts | 174° |
| 2026-05-07 13:04 | 51.96289 | 10.85536 | 8036 ft | 175 kts | 174° |
| 2026-05-07 13:04 | 51.95078 | 10.85724 | 8035 ft | 175 kts | 174° |
| 2026-05-07 13:04 | 51.93869 | 10.85912 | 8033 ft | 174 kts | 174° |
| 2026-05-07 13:05 | 51.92661 | 10.86100 | 8034 ft | 174 kts | 174° |
| 2026-05-07 13:05 | 51.91453 | 10.86287 | 8033 ft | 175 kts | 174° |
| 2026-05-07 13:05 | 51.90243 | 10.86473 | 8033 ft | 175 kts | 174° |
| 2026-05-07 13:05 | 51.89031 | 10.86661 | 8032 ft | 175 kts | 174° |
| 2026-05-07 13:06 | 51.87819 | 10.86848 | 8031 ft | 175 kts | 174° |
| 2026-05-07 13:06 | 51.86621 | 10.87033 | 8032 ft | 175 kts | 174° |
| 2026-05-07 13:06 | 51.85455 | 10.87215 | 8029 ft | 175 kts | 174° |
| 2026-05-07 13:06 | 51.84248 | 10.87403 | 8030 ft | 175 kts | 174° |
| 2026-05-07 13:07 | 51.83037 | 10.87593 | 8030 ft | 175 kts | 174° |
| 2026-05-07 13:07 | 51.81826 | 10.87793 | 8033 ft | 175 kts | 174° |
| 2026-05-07 13:07 | 51.80618 | 10.88002 | 8031 ft | 174 kts | 173° |
| 2026-05-07 13:07 | 51.79411 | 10.88217 | 8033 ft | 174 kts | 174° |
| 2026-05-07 13:08 | 51.78207 | 10.88433 | 8032 ft | 174 kts | 173° |
| 2026-05-07 13:08 | 51.77025 | 10.88839 | 8031 ft | 174 kts | 159° |
| 2026-05-07 13:08 | 51.76035 | 10.89892 | 8028 ft | 174 kts | 139° |
| 2026-05-07 13:08 | 51.75034 | 10.90973 | 8029 ft | 174 kts | 153° |
| 2026-05-07 13:09 | 51.73923 | 10.91748 | 8031 ft | 174 kts | 158° |
| 2026-05-07 13:09 | 51.72797 | 10.92460 | 8032 ft | 174 kts | 158° |
| 2026-05-07 13:09 | 51.71671 | 10.93180 | 8032 ft | 174 kts | 158° |
| 2026-05-07 13:09 | 51.70545 | 10.93908 | 8032 ft | 174 kts | 158° |
| 2026-05-07 13:10 | 51.69421 | 10.94635 | 8033 ft | 174 kts | 158° |
| 2026-05-07 13:10 | 51.68296 | 10.95362 | 8031 ft | 174 kts | 158° |
| 2026-05-07 13:10 | 51.67170 | 10.96089 | 8029 ft | 174 kts | 158° |
| 2026-05-07 13:10 | 51.66061 | 10.96806 | 8030 ft | 174 kts | 158° |
| 2026-05-07 13:11 | 51.64937 | 10.97530 | 8028 ft | 174 kts | 158° |
| 2026-05-07 13:11 | 51.63812 | 10.98256 | 8031 ft | 174 kts | 158° |
| 2026-05-07 13:11 | 51.62707 | 10.98968 | 8153 ft | 168 kts | 158° |
| 2026-05-07 13:11 | 51.61634 | 10.99660 | 8304 ft | 165 kts | 158° |
| 2026-05-07 13:12 | 51.60576 | 11.00341 | 8461 ft | 163 kts | 158° |
| 2026-05-07 13:12 | 51.59529 | 11.01015 | 8612 ft | 162 kts | 158° |
| 2026-05-07 13:12 | 51.58488 | 11.01685 | 8767 ft | 161 kts | 158° |
| 2026-05-07 13:12 | 51.57451 | 11.02352 | 8924 ft | 160 kts | 158° |
| 2026-05-07 13:13 | 51.56432 | 11.03006 | 9074 ft | 160 kts | 158° |
| 2026-05-07 13:13 | 51.55397 | 11.03672 | 9234 ft | 160 kts | 158° |
| 2026-05-07 13:13 | 51.54360 | 11.04339 | 9395 ft | 161 kts | 158° |
| 2026-05-07 13:13 | 51.53322 | 11.05004 | 9556 ft | 161 kts | 158° |
| 2026-05-07 13:14 | 51.52283 | 11.05669 | 9715 ft | 161 kts | 158° |
| 2026-05-07 13:14 | 51.51245 | 11.06335 | 9875 ft | 160 kts | 158° |
| 2026-05-07 13:14 | 51.50209 | 11.06999 | 10023 ft | 160 kts | 158° |
| 2026-05-07 13:14 | 51.49176 | 11.07660 | 10161 ft | 160 kts | 158° |
| 2026-05-07 13:15 | 51.48082 | 11.07921 | 10314 ft | 160 kts | 184° |
| 2026-05-07 13:15 | 51.46969 | 11.07817 | 10463 ft | 160 kts | 184° |
| 2026-05-07 13:15 | 51.45872 | 11.07710 | 10606 ft | 160 kts | 184° |
| 2026-05-07 13:15 | 51.44758 | 11.07600 | 10753 ft | 160 kts | 184° |
| 2026-05-07 13:16 | 51.43643 | 11.07491 | 10904 ft | 161 kts | 184° |
| 2026-05-07 13:16 | 51.42523 | 11.07380 | 11057 ft | 163 kts | 184° |
| 2026-05-07 13:16 | 51.41383 | 11.07267 | 11211 ft | 166 kts | 184° |
| 2026-05-07 13:16 | 51.40223 | 11.07154 | 11364 ft | 168 kts | 184° |
| 2026-05-07 13:17 | 51.39048 | 11.07042 | 11510 ft | 170 kts | 184° |
| 2026-05-07 13:17 | 51.37869 | 11.06926 | 11669 ft | 170 kts | 184° |
| 2026-05-07 13:17 | 51.36697 | 11.06812 | 11819 ft | 172 kts | 184° |
| 2026-05-07 13:17 | 51.35493 | 11.06695 | 11966 ft | 174 kts | 184° |
| 2026-05-07 13:18 | 51.34273 | 11.06578 | 12014 ft | 179 kts | 184° |
| 2026-05-07 13:18 | 51.33013 | 11.06455 | 12011 ft | 183 kts | 184° |
| 2026-05-07 13:18 | 51.31731 | 11.06333 | 12013 ft | 185 kts | 184° |
| 2026-05-07 13:18 | 51.30442 | 11.06208 | 12010 ft | 186 kts | 184° |
| 2026-05-07 13:19 | 51.29150 | 11.06082 | 12009 ft | 186 kts | 184° |
| 2026-05-07 13:19 | 51.27856 | 11.05957 | 12011 ft | 187 kts | 184° |
| 2026-05-07 13:19 | 51.26579 | 11.05832 | 12011 ft | 186 kts | 184° |
| 2026-05-07 13:19 | 51.25283 | 11.05706 | 12010 ft | 187 kts | 185° |
| 2026-05-07 13:20 | 51.23985 | 11.05581 | 12013 ft | 187 kts | 184° |
| 2026-05-07 13:20 | 51.22678 | 11.05455 | 12016 ft | 189 kts | 184° |
| 2026-05-07 13:20 | 51.21361 | 11.05328 | 12020 ft | 190 kts | 184° |
| 2026-05-07 13:20 | 51.20038 | 11.05202 | 12016 ft | 191 kts | 184° |
| 2026-05-07 13:21 | 51.18711 | 11.05072 | 12021 ft | 191 kts | 184° |
| 2026-05-07 13:21 | 51.17381 | 11.04943 | 12021 ft | 192 kts | 184° |
| 2026-05-07 13:21 | 51.16064 | 11.04815 | 12023 ft | 192 kts | 184° |
| 2026-05-07 13:21 | 51.14726 | 11.04691 | 12014 ft | 192 kts | 184° |
| 2026-05-07 13:22 | 51.13395 | 11.04564 | 12014 ft | 191 kts | 184° |
| 2026-05-07 13:22 | 51.12068 | 11.04435 | 12019 ft | 191 kts | 184° |
| 2026-05-07 13:22 | 51.10741 | 11.04306 | 12022 ft | 191 kts | 184° |
| 2026-05-07 13:22 | 51.09417 | 11.04179 | 12019 ft | 190 kts | 184° |
| 2026-05-07 13:23 | 51.08096 | 11.04052 | 12022 ft | 190 kts | 185° |
| 2026-05-07 13:23 | 51.07223 | 11.03968 | 12017 ft | 190 kts | 184° |
| 2026-05-07 13:23 | 51.05905 | 11.03843 | 12021 ft | 189 kts | 184° |
| 2026-05-07 13:23 | 51.04595 | 11.03718 | 12019 ft | 189 kts | 185° |
| 2026-05-07 13:24 | 51.03289 | 11.03592 | 12017 ft | 188 kts | 185° |
| 2026-05-07 13:24 | 51.01562 | 11.03427 | 12016 ft | 187 kts | 185° |
| 2026-05-07 13:24 | 51.00261 | 11.03301 | 12015 ft | 187 kts | 185° |
| 2026-05-07 13:24 | 50.98964 | 11.03177 | 12015 ft | 187 kts | 185° |
| 2026-05-07 13:25 | 50.98104 | 11.03095 | 12016 ft | 187 kts | 185° |
| 2026-05-07 13:25 | 50.96811 | 11.02971 | 12012 ft | 186 kts | 185° |
| 2026-05-07 13:25 | 50.95521 | 11.02849 | 12014 ft | 185 kts | 185° |
| 2026-05-07 13:25 | 50.94237 | 11.02727 | 12016 ft | 185 kts | 185° |
| 2026-05-07 13:26 | 50.92543 | 11.02565 | 12014 ft | 184 kts | 185° |
| 2026-05-07 13:26 | 50.91268 | 11.02444 | 12014 ft | 183 kts | 185° |
| 2026-05-07 13:26 | 50.90406 | 11.02390 | 12012 ft | 184 kts | 180° |
| 2026-05-07 13:26 | 50.89126 | 11.02387 | 12013 ft | 184 kts | 183° |
| 2026-05-07 13:27 | 50.87869 | 11.02341 | 12015 ft | 183 kts | 182° |
| 2026-05-07 13:27 | 50.86597 | 11.02309 | 12039 ft | 183 kts | 182° |
| 2026-05-07 13:27 | 50.85318 | 11.02282 | 12042 ft | 184 kts | 183° |
| 2026-05-07 13:27 | 50.84034 | 11.02258 | 12032 ft | 184 kts | 183° |
| 2026-05-07 13:28 | 50.82756 | 11.02234 | 12031 ft | 183 kts | 183° |
| 2026-05-07 13:28 | 50.81482 | 11.02209 | 12029 ft | 183 kts | 183° |
| 2026-05-07 13:28 | 50.80212 | 11.02184 | 12029 ft | 183 kts | 183° |
| 2026-05-07 13:28 | 50.78941 | 11.02160 | 12024 ft | 183 kts | 182° |
| 2026-05-07 13:29 | 50.77668 | 11.02135 | 12024 ft | 183 kts | 183° |
| 2026-05-07 13:29 | 50.76414 | 11.02111 | 12023 ft | 183 kts | 183° |
| 2026-05-07 13:29 | 50.75145 | 11.02085 | 12021 ft | 182 kts | 183° |
| 2026-05-07 13:29 | 50.73874 | 11.02061 | 12016 ft | 183 kts | 183° |
| 2026-05-07 13:30 | 50.72603 | 11.02036 | 12011 ft | 183 kts | 182° |
| 2026-05-07 13:30 | 50.71327 | 11.02052 | 12008 ft | 184 kts | 179° |
| 2026-05-07 13:30 | 50.70048 | 11.02098 | 12007 ft | 184 kts | 181° |
| 2026-05-07 13:30 | 50.68765 | 11.02116 | 12005 ft | 185 kts | 181° |
| 2026-05-07 13:31 | 50.67481 | 11.02150 | 12001 ft | 185 kts | 181° |
| 2026-05-07 13:31 | 50.66196 | 11.02189 | 12000 ft | 185 kts | 181° |
| 2026-05-07 13:31 | 50.64928 | 11.02227 | 11998 ft | 185 kts | 181° |
| 2026-05-07 13:31 | 50.63642 | 11.02266 | 11993 ft | 185 kts | 181° |
| 2026-05-07 13:32 | 50.62359 | 11.02304 | 11990 ft | 184 kts | 181° |
| 2026-05-07 13:32 | 50.61082 | 11.02345 | 11989 ft | 183 kts | 181° |
| 2026-05-07 13:32 | 50.59813 | 11.02382 | 11986 ft | 182 kts | 181° |
| 2026-05-07 13:32 | 50.58546 | 11.02418 | 11991 ft | 182 kts | 181° |
| 2026-05-07 13:33 | 50.57282 | 11.02457 | 11988 ft | 181 kts | 181° |
| 2026-05-07 13:33 | 50.56021 | 11.02495 | 11990 ft | 181 kts | 181° |
| 2026-05-07 13:33 | 50.54778 | 11.02532 | 11989 ft | 181 kts | 181° |
| 2026-05-07 13:33 | 50.53516 | 11.02570 | 11990 ft | 182 kts | 181° |
| 2026-05-07 13:34 | 50.52252 | 11.02607 | 11985 ft | 182 kts | 181° |
| 2026-05-07 13:34 | 50.49723 | 11.02684 | 11986 ft | 182 kts | 181° |
| 2026-05-07 13:34 | 50.48458 | 11.02722 | 11986 ft | 182 kts | 181° |
| 2026-05-07 13:35 | 50.47194 | 11.02759 | 11985 ft | 182 kts | 181° |
| 2026-05-07 13:35 | 50.45931 | 11.02795 | 11986 ft | 182 kts | 181° |
| 2026-05-07 13:35 | 50.44669 | 11.02834 | 11985 ft | 181 kts | 181° |
| 2026-05-07 13:35 | 50.43421 | 11.02871 | 11983 ft | 182 kts | 181° |
| 2026-05-07 13:36 | 50.42155 | 11.02910 | 11982 ft | 182 kts | 181° |
| 2026-05-07 13:36 | 50.40888 | 11.02948 | 11981 ft | 182 kts | 181° |
| 2026-05-07 13:36 | 50.39620 | 11.02985 | 11983 ft | 182 kts | 181° |
| 2026-05-07 13:36 | 50.38355 | 11.03022 | 11982 ft | 182 kts | 181° |
| 2026-05-07 13:37 | 50.37090 | 11.03059 | 11981 ft | 182 kts | 181° |
| 2026-05-07 13:37 | 50.35824 | 11.03098 | 11984 ft | 182 kts | 181° |
| 2026-05-07 13:37 | 50.34550 | 11.03135 | 11984 ft | 184 kts | 181° |
| 2026-05-07 13:37 | 50.33269 | 11.03172 | 11985 ft | 185 kts | 180° |
| 2026-05-07 13:38 | 50.32001 | 11.03212 | 11987 ft | 185 kts | 181° |
| 2026-05-07 13:38 | 50.30710 | 11.03250 | 11983 ft | 186 kts | 181° |
| 2026-05-07 13:38 | 50.29415 | 11.03287 | 11982 ft | 186 kts | 181° |
| 2026-05-07 13:38 | 50.28123 | 11.03325 | 11986 ft | 185 kts | 181° |
| 2026-05-07 13:39 | 50.26838 | 11.03363 | 11983 ft | 184 kts | 181° |
| 2026-05-07 13:39 | 50.25561 | 11.03401 | 11985 ft | 183 kts | 181° |
| 2026-05-07 13:39 | 50.24290 | 11.03439 | 11985 ft | 182 kts | 181° |
| 2026-05-07 13:39 | 50.23022 | 11.03476 | 11984 ft | 182 kts | 181° |
| 2026-05-07 13:40 | 50.21770 | 11.03514 | 11981 ft | 182 kts | 181° |
| 2026-05-07 13:40 | 50.20499 | 11.03551 | 11982 ft | 183 kts | 181° |
| 2026-05-07 13:40 | 50.19229 | 11.03588 | 11981 ft | 183 kts | 181° |
| 2026-05-07 13:40 | 50.17961 | 11.03626 | 11979 ft | 182 kts | 181° |
| 2026-05-07 13:41 | 50.16692 | 11.03664 | 11980 ft | 182 kts | 181° |
| 2026-05-07 13:41 | 50.15420 | 11.03700 | 11982 ft | 183 kts | 181° |
| 2026-05-07 13:41 | 50.14147 | 11.03738 | 11984 ft | 183 kts | 181° |
| 2026-05-07 13:41 | 50.12874 | 11.03774 | 11984 ft | 183 kts | 182° |
| 2026-05-07 13:42 | 50.11600 | 11.03813 | 11984 ft | 183 kts | 181° |
| 2026-05-07 13:42 | 50.10326 | 11.03850 | 11982 ft | 183 kts | 182° |
| 2026-05-07 13:42 | 50.09069 | 11.03886 | 11985 ft | 183 kts | 182° |
| 2026-05-07 13:42 | 50.07793 | 11.03925 | 11985 ft | 183 kts | 182° |
| 2026-05-07 13:43 | 50.06513 | 11.03963 | 11991 ft | 185 kts | 182° |
| 2026-05-07 13:43 | 50.05215 | 11.04002 | 12002 ft | 189 kts | 182° |
| 2026-05-07 13:43 | 50.03878 | 11.04038 | 12008 ft | 195 kts | 182° |
| 2026-05-07 13:43 | 50.02504 | 11.04073 | 12000 ft | 199 kts | 181° |
| 2026-05-07 13:44 | 50.01116 | 11.04119 | 11998 ft | 200 kts | 181° |
| 2026-05-07 13:44 | 49.99730 | 11.04161 | 11989 ft | 198 kts | 181° |
| 2026-05-07 13:44 | 49.98384 | 11.04203 | 11991 ft | 194 kts | 182° |
| 2026-05-07 13:44 | 49.97047 | 11.04242 | 11990 ft | 191 kts | 182° |
| 2026-05-07 13:45 | 49.95729 | 11.04280 | 11992 ft | 188 kts | 182° |
| 2026-05-07 13:45 | 49.94426 | 11.04319 | 11991 ft | 187 kts | 182° |
| 2026-05-07 13:45 | 49.93126 | 11.04355 | 11999 ft | 187 kts | 182° |
| 2026-05-07 13:45 | 49.91816 | 11.04391 | 12000 ft | 189 kts | 182° |
| 2026-05-07 13:46 | 49.90497 | 11.04429 | 11998 ft | 190 kts | 182° |
| 2026-05-07 13:46 | 49.89180 | 11.04468 | 11997 ft | 189 kts | 182° |
| 2026-05-07 13:46 | 49.87864 | 11.04508 | 12000 ft | 189 kts | 182° |
| 2026-05-07 13:46 | 49.86554 | 11.04546 | 12000 ft | 189 kts | 182° |
| 2026-05-07 13:47 | 49.85262 | 11.04582 | 11996 ft | 188 kts | 182° |
| 2026-05-07 13:47 | 49.83958 | 11.04621 | 12005 ft | 187 kts | 183° |
| 2026-05-07 13:47 | 49.82652 | 11.04658 | 12004 ft | 188 kts | 183° |
| 2026-05-07 13:47 | 49.81345 | 11.04694 | 12012 ft | 188 kts | 183° |
| 2026-05-07 13:48 | 49.80032 | 11.04733 | 12011 ft | 189 kts | 183° |
| 2026-05-07 13:48 | 49.78713 | 11.04773 | 12014 ft | 190 kts | 183° |
| 2026-05-07 13:48 | 49.77390 | 11.04811 | 12018 ft | 191 kts | 183° |
| 2026-05-07 13:48 | 49.76055 | 11.04848 | 12022 ft | 193 kts | 183° |
| 2026-05-07 13:49 | 49.74709 | 11.04887 | 12024 ft | 194 kts | 183° |
| 2026-05-07 13:49 | 49.73357 | 11.04928 | 12027 ft | 195 kts | 183° |
| 2026-05-07 13:49 | 49.72016 | 11.04968 | 12026 ft | 196 kts | 183° |
| 2026-05-07 13:49 | 49.70656 | 11.05006 | 12027 ft | 196 kts | 183° |
| 2026-05-07 13:50 | 49.69301 | 11.05043 | 12023 ft | 193 kts | 183° |
| 2026-05-07 13:50 | 49.67963 | 11.05084 | 12027 ft | 191 kts | 183° |
| 2026-05-07 13:50 | 49.66658 | 11.04903 | 12029 ft | 186 kts | 200° |
| 2026-05-07 13:50 | 49.65507 | 11.04089 | 12032 ft | 179 kts | 219° |
| 2026-05-07 13:51 | 49.64603 | 11.02815 | 12033 ft | 175 kts | 230° |
| 2026-05-07 13:51 | 49.63754 | 11.01472 | 12034 ft | 174 kts | 230° |
| 2026-05-07 13:51 | 49.62914 | 11.00139 | 12034 ft | 173 kts | 230° |
| 2026-05-07 13:51 | 49.62079 | 10.98806 | 12035 ft | 172 kts | 230° |
| 2026-05-07 13:52 | 49.61259 | 10.97499 | 12037 ft | 172 kts | 230° |
| 2026-05-07 13:52 | 49.60428 | 10.96176 | 12038 ft | 172 kts | 230° |
| 2026-05-07 13:52 | 49.59597 | 10.94855 | 12037 ft | 172 kts | 230° |
| 2026-05-07 13:52 | 49.58766 | 10.93534 | 12037 ft | 172 kts | 230° |
| 2026-05-07 13:53 | 49.57933 | 10.92211 | 12038 ft | 172 kts | 230° |
| 2026-05-07 13:53 | 49.57097 | 10.90885 | 12037 ft | 172 kts | 231° |
| 2026-05-07 13:53 | 49.56262 | 10.89560 | 12038 ft | 173 kts | 231° |
| 2026-05-07 13:53 | 49.55426 | 10.88234 | 12036 ft | 173 kts | 231° |
| 2026-05-07 13:54 | 49.54588 | 10.86907 | 12035 ft | 173 kts | 230° |
| 2026-05-07 13:54 | 49.53752 | 10.85581 | 12035 ft | 173 kts | 231° |
| 2026-05-07 13:54 | 49.52926 | 10.84273 | 12035 ft | 173 kts | 230° |
| 2026-05-07 13:54 | 49.52089 | 10.82949 | 12034 ft | 173 kts | 230° |
| 2026-05-07 13:55 | 49.51252 | 10.81627 | 12035 ft | 172 kts | 230° |
| 2026-05-07 13:55 | 49.50416 | 10.80306 | 12036 ft | 172 kts | 230° |
| 2026-05-07 13:55 | 49.49581 | 10.78991 | 12032 ft | 172 kts | 230° |
| 2026-05-07 13:55 | 49.48749 | 10.77679 | 12034 ft | 172 kts | 230° |
| 2026-05-07 13:56 | 49.47911 | 10.76359 | 12033 ft | 172 kts | 230° |
| 2026-05-07 13:56 | 49.47084 | 10.75056 | 12037 ft | 173 kts | 230° |
| 2026-05-07 13:56 | 49.46241 | 10.73731 | 12035 ft | 174 kts | 230° |
| 2026-05-07 13:56 | 49.45400 | 10.72408 | 12035 ft | 173 kts | 230° |
| 2026-05-07 13:57 | 49.44562 | 10.71091 | 12037 ft | 172 kts | 230° |
| 2026-05-07 13:57 | 49.43726 | 10.69778 | 12037 ft | 172 kts | 230° |
| 2026-05-07 13:57 | 49.42892 | 10.68468 | 12036 ft | 171 kts | 230° |
| 2026-05-07 13:57 | 49.42062 | 10.67164 | 12037 ft | 171 kts | 230° |
| 2026-05-07 13:58 | 49.41240 | 10.65852 | 12037 ft | 170 kts | 233° |
| 2026-05-07 13:58 | 49.40432 | 10.64527 | 12038 ft | 170 kts | 231° |
| 2026-05-07 13:58 | 49.39624 | 10.63235 | 12043 ft | 170 kts | 231° |
| 2026-05-07 13:58 | 49.38810 | 10.61921 | 12042 ft | 170 kts | 231° |
| 2026-05-07 13:59 | 49.37996 | 10.60602 | 12047 ft | 170 kts | 231° |
| 2026-05-07 13:59 | 49.37181 | 10.59280 | 12047 ft | 170 kts | 231° |
| 2026-05-07 13:59 | 49.36365 | 10.57959 | 12051 ft | 171 kts | 231° |
| 2026-05-07 13:59 | 49.35551 | 10.56640 | 12049 ft | 170 kts | 231° |
| 2026-05-07 14:00 | 49.34734 | 10.55320 | 12053 ft | 170 kts | 230° |
| 2026-05-07 14:00 | 49.33887 | 10.54042 | 12051 ft | 171 kts | 230° |
| 2026-05-07 14:00 | 49.33053 | 10.52749 | 12054 ft | 171 kts | 230° |
| 2026-05-07 14:00 | 49.32215 | 10.51458 | 12053 ft | 171 kts | 229° |
| 2026-05-07 14:01 | 49.31388 | 10.50188 | 12056 ft | 171 kts | 229° |
| 2026-05-07 14:01 | 49.30546 | 10.48900 | 12053 ft | 171 kts | 229° |
| 2026-05-07 14:01 | 49.29708 | 10.47619 | 12053 ft | 171 kts | 229° |
| 2026-05-07 14:01 | 49.28866 | 10.46332 | 12051 ft | 171 kts | 229° |
| 2026-05-07 14:02 | 49.28024 | 10.45043 | 12052 ft | 171 kts | 229° |
| 2026-05-07 14:02 | 49.27181 | 10.43756 | 12052 ft | 171 kts | 229° |
| 2026-05-07 14:02 | 49.26337 | 10.42466 | 12051 ft | 171 kts | 229° |
| 2026-05-07 14:02 | 49.25494 | 10.41180 | 12051 ft | 171 kts | 229° |
| 2026-05-07 14:03 | 49.24652 | 10.39895 | 12053 ft | 170 kts | 229° |
| 2026-05-07 14:03 | 49.23811 | 10.38613 | 12048 ft | 171 kts | 229° |
| 2026-05-07 14:03 | 49.22973 | 10.37325 | 12050 ft | 171 kts | 229° |
| 2026-05-07 14:03 | 49.22143 | 10.36029 | 12046 ft | 171 kts | 229° |
| 2026-05-07 14:04 | 49.21310 | 10.34734 | 12053 ft | 171 kts | 229° |
| 2026-05-07 14:04 | 49.20487 | 10.33456 | 12051 ft | 171 kts | 229° |
| 2026-05-07 14:04 | 49.19652 | 10.32157 | 12052 ft | 171 kts | 229° |
| 2026-05-07 14:04 | 49.18813 | 10.30857 | 12052 ft | 172 kts | 229° |
| 2026-05-07 14:05 | 49.17971 | 10.29553 | 12049 ft | 173 kts | 229° |
| 2026-05-07 14:05 | 49.17126 | 10.28245 | 12050 ft | 173 kts | 229° |
| 2026-05-07 14:05 | 49.16280 | 10.26935 | 12045 ft | 173 kts | 229° |
| 2026-05-07 14:05 | 49.15434 | 10.25626 | 12043 ft | 173 kts | 229° |
| 2026-05-07 14:06 | 49.14593 | 10.24324 | 12039 ft | 172 kts | 229° |
| 2026-05-07 14:06 | 49.13809 | 10.22954 | 12043 ft | 171 kts | 234° |
| 2026-05-07 14:06 | 49.13068 | 10.21538 | 12039 ft | 171 kts | 234° |
| 2026-05-07 14:06 | 49.12325 | 10.20126 | 12036 ft | 170 kts | 234° |
| 2026-05-07 14:07 | 49.11581 | 10.18713 | 12036 ft | 171 kts | 234° |
| 2026-05-07 14:07 | 49.10837 | 10.17299 | 12040 ft | 171 kts | 234° |
| 2026-05-07 14:07 | 49.10088 | 10.15880 | 12040 ft | 172 kts | 234° |
| 2026-05-07 14:07 | 49.09347 | 10.14475 | 12037 ft | 172 kts | 234° |
| 2026-05-07 14:08 | 49.08597 | 10.13054 | 12037 ft | 172 kts | 234° |
| 2026-05-07 14:08 | 49.07849 | 10.11636 | 12036 ft | 171 kts | 234° |
| 2026-05-07 14:08 | 49.07104 | 10.10225 | 12035 ft | 171 kts | 234° |
| 2026-05-07 14:08 | 49.06360 | 10.08819 | 12034 ft | 170 kts | 234° |
| 2026-05-07 14:09 | 49.05616 | 10.07413 | 12034 ft | 170 kts | 234° |
| 2026-05-07 14:09 | 49.04873 | 10.06008 | 12034 ft | 170 kts | 234° |
| 2026-05-07 14:09 | 49.04130 | 10.04603 | 12033 ft | 170 kts | 234° |
| 2026-05-07 14:09 | 49.03386 | 10.03200 | 12035 ft | 170 kts | 234° |
| 2026-05-07 14:10 | 49.02642 | 10.01795 | 12033 ft | 170 kts | 234° |
| 2026-05-07 14:10 | 49.01898 | 10.00393 | 12033 ft | 170 kts | 234° |
| 2026-05-07 14:10 | 49.01163 | 9.99007 | 12036 ft | 171 kts | 234° |
| 2026-05-07 14:10 | 49.00418 | 9.97603 | 12034 ft | 170 kts | 234° |
| 2026-05-07 14:11 | 48.99673 | 9.96201 | 12036 ft | 170 kts | 234° |
| 2026-05-07 14:11 | 48.98928 | 9.94796 | 12036 ft | 171 kts | 233° |
| 2026-05-07 14:11 | 48.98181 | 9.93392 | 12036 ft | 171 kts | 233° |
| 2026-05-07 14:11 | 48.97431 | 9.91983 | 12033 ft | 171 kts | 234° |
| 2026-05-07 14:12 | 48.96683 | 9.90577 | 12032 ft | 171 kts | 233° |
| 2026-05-07 14:12 | 48.95936 | 9.89175 | 12034 ft | 171 kts | 233° |
| 2026-05-07 14:12 | 48.95186 | 9.87767 | 12034 ft | 171 kts | 233° |
| 2026-05-07 14:12 | 48.94439 | 9.86366 | 12034 ft | 171 kts | 233° |
| 2026-05-07 14:13 | 48.93688 | 9.84958 | 12031 ft | 172 kts | 233° |
| 2026-05-07 14:13 | 48.92948 | 9.83569 | 12034 ft | 171 kts | 233° |
| 2026-05-07 14:13 | 48.92196 | 9.82162 | 12030 ft | 171 kts | 233° |
| 2026-05-07 14:13 | 48.91447 | 9.80760 | 12033 ft | 171 kts | 233° |
| 2026-05-07 14:14 | 48.90698 | 9.79358 | 12031 ft | 171 kts | 233° |
| 2026-05-07 14:14 | 48.89948 | 9.77956 | 12030 ft | 171 kts | 233° |
| 2026-05-07 14:14 | 48.89201 | 9.76560 | 12031 ft | 170 kts | 233° |
| 2026-05-07 14:14 | 48.88453 | 9.75164 | 12030 ft | 171 kts | 233° |
| 2026-05-07 14:15 | 48.87705 | 9.73766 | 12026 ft | 170 kts | 233° |
| 2026-05-07 14:15 | 48.86958 | 9.72372 | 12023 ft | 170 kts | 233° |
| 2026-05-07 14:15 | 48.86210 | 9.70979 | 12025 ft | 170 kts | 233° |
| 2026-05-07 14:15 | 48.85464 | 9.69588 | 12023 ft | 170 kts | 233° |
| 2026-05-07 14:16 | 48.84717 | 9.68194 | 12025 ft | 170 kts | 233° |
| 2026-05-07 14:16 | 48.83970 | 9.66804 | 12022 ft | 170 kts | 233° |
| 2026-05-07 14:16 | 48.83220 | 9.65409 | 12019 ft | 171 kts | 233° |
| 2026-05-07 14:16 | 48.82470 | 9.64014 | 12019 ft | 171 kts | 233° |
| 2026-05-07 14:17 | 48.81729 | 9.62636 | 12013 ft | 170 kts | 233° |
| 2026-05-07 14:17 | 48.80976 | 9.61239 | 12017 ft | 171 kts | 233° |
| 2026-05-07 14:17 | 48.80220 | 9.59835 | 12019 ft | 173 kts | 233° |
| 2026-05-07 14:17 | 48.79459 | 9.58421 | 12017 ft | 173 kts | 233° |
| 2026-05-07 14:18 | 48.78696 | 9.57006 | 12014 ft | 173 kts | 233° |
| 2026-05-07 14:18 | 48.77939 | 9.55600 | 12014 ft | 172 kts | 233° |
| 2026-05-07 14:18 | 48.77184 | 9.54202 | 12012 ft | 171 kts | 233° |
| 2026-05-07 14:18 | 48.76428 | 9.52804 | 12013 ft | 171 kts | 233° |
| 2026-05-07 14:19 | 48.75674 | 9.51407 | 12012 ft | 171 kts | 233° |
| 2026-05-07 14:19 | 48.74919 | 9.50012 | 12013 ft | 171 kts | 233° |
| 2026-05-07 14:19 | 48.74164 | 9.48617 | 12009 ft | 171 kts | 233° |
| 2026-05-07 14:19 | 48.73412 | 9.47225 | 12015 ft | 171 kts | 233° |
| 2026-05-07 14:20 | 48.72667 | 9.45847 | 12012 ft | 171 kts | 233° |
| 2026-05-07 14:20 | 48.71914 | 9.44457 | 12011 ft | 171 kts | 233° |
| 2026-05-07 14:20 | 48.71163 | 9.43071 | 12015 ft | 170 kts | 233° |
| 2026-05-07 14:20 | 48.70411 | 9.41684 | 12015 ft | 171 kts | 233° |
| 2026-05-07 14:21 | 48.69661 | 9.40298 | 12013 ft | 170 kts | 233° |
| 2026-05-07 14:21 | 48.68911 | 9.38917 | 12014 ft | 170 kts | 233° |
| 2026-05-07 14:21 | 48.68161 | 9.37538 | 12015 ft | 170 kts | 233° |
| 2026-05-07 14:21 | 48.67410 | 9.36157 | 12017 ft | 170 kts | 233° |
| 2026-05-07 14:22 | 48.66657 | 9.34769 | 12016 ft | 171 kts | 233° |
| 2026-05-07 14:22 | 48.65903 | 9.33381 | 12016 ft | 171 kts | 233° |
| 2026-05-07 14:22 | 48.65146 | 9.31992 | 12016 ft | 171 kts | 233° |
| 2026-05-07 14:22 | 48.64390 | 9.30602 | 12016 ft | 171 kts | 233° |
| 2026-05-07 14:23 | 48.63633 | 9.29212 | 12016 ft | 171 kts | 233° |
| 2026-05-07 14:23 | 48.62878 | 9.27825 | 12014 ft | 171 kts | 233° |
| 2026-05-07 14:23 | 48.62132 | 9.26457 | 12015 ft | 171 kts | 233° |
| 2026-05-07 14:23 | 48.61422 | 9.25021 | 12018 ft | 171 kts | 237° |
| 2026-05-07 14:24 | 48.60729 | 9.23556 | 12018 ft | 172 kts | 236° |
| 2026-05-07 14:24 | 48.60031 | 9.22078 | 12020 ft | 173 kts | 237° |
| 2026-05-07 14:24 | 48.59333 | 9.20594 | 12016 ft | 173 kts | 237° |
| 2026-05-07 14:24 | 48.58640 | 9.19121 | 12013 ft | 172 kts | 237° |
| 2026-05-07 14:25 | 48.57949 | 9.17654 | 12012 ft | 171 kts | 237° |
| 2026-05-07 14:25 | 48.57261 | 9.16193 | 12013 ft | 171 kts | 237° |
| 2026-05-07 14:25 | 48.56573 | 9.14731 | 12015 ft | 170 kts | 237° |
| 2026-05-07 14:25 | 48.55885 | 9.13276 | 12014 ft | 170 kts | 237° |
| 2026-05-07 14:26 | 48.55198 | 9.11823 | 12016 ft | 170 kts | 237° |
| 2026-05-07 14:26 | 48.54521 | 9.10389 | 12014 ft | 170 kts | 236° |
| 2026-05-07 14:26 | 48.53834 | 9.08935 | 12015 ft | 170 kts | 237° |
| 2026-05-07 14:26 | 48.53146 | 9.07476 | 12020 ft | 172 kts | 237° |
| 2026-05-07 14:27 | 48.52446 | 9.05998 | 12018 ft | 174 kts | 236° |
| 2026-05-07 14:27 | 48.51741 | 9.04511 | 12017 ft | 174 kts | 236° |
| 2026-05-07 14:27 | 48.51037 | 9.03024 | 12013 ft | 174 kts | 236° |
| 2026-05-07 14:27 | 48.50334 | 9.01546 | 12008 ft | 173 kts | 236° |
| 2026-05-07 14:28 | 48.49638 | 9.00078 | 12012 ft | 171 kts | 236° |
| 2026-05-07 14:28 | 48.48946 | 8.98621 | 12009 ft | 170 kts | 236° |
| 2026-05-07 14:28 | 48.48259 | 8.97173 | 12014 ft | 169 kts | 236° |
| 2026-05-07 14:28 | 48.47575 | 8.95730 | 12012 ft | 169 kts | 236° |
| 2026-05-07 14:29 | 48.46889 | 8.94287 | 12012 ft | 169 kts | 236° |
| 2026-05-07 14:29 | 48.46204 | 8.92845 | 12012 ft | 169 kts | 236° |
| 2026-05-07 14:29 | 48.45517 | 8.91401 | 12014 ft | 170 kts | 236° |
| 2026-05-07 14:29 | 48.44830 | 8.89955 | 12009 ft | 170 kts | 236° |
| 2026-05-07 14:30 | 48.44144 | 8.88516 | 12014 ft | 169 kts | 236° |
| 2026-05-07 14:30 | 48.43456 | 8.87077 | 12015 ft | 169 kts | 236° |
| 2026-05-07 14:30 | 48.42778 | 8.85656 | 12017 ft | 170 kts | 236° |
| 2026-05-07 14:30 | 48.42090 | 8.84209 | 12013 ft | 170 kts | 236° |
| 2026-05-07 14:31 | 48.41402 | 8.82765 | 12015 ft | 170 kts | 236° |
| 2026-05-07 14:31 | 48.40714 | 8.81320 | 12017 ft | 170 kts | 236° |
| 2026-05-07 14:31 | 48.40025 | 8.79882 | 12017 ft | 169 kts | 236° |
| 2026-05-07 14:31 | 48.39337 | 8.78450 | 12019 ft | 169 kts | 236° |
| 2026-05-07 14:32 | 48.38648 | 8.77009 | 12015 ft | 170 kts | 236° |
| 2026-05-07 14:32 | 48.37958 | 8.75566 | 12014 ft | 170 kts | 236° |
| 2026-05-07 14:32 | 48.37269 | 8.74124 | 12014 ft | 169 kts | 236° |
| 2026-05-07 14:32 | 48.36580 | 8.72688 | 12014 ft | 169 kts | 236° |
| 2026-05-07 14:33 | 48.35892 | 8.71251 | 12018 ft | 169 kts | 236° |
| 2026-05-07 14:33 | 48.35204 | 8.69815 | 12016 ft | 169 kts | 236° |
| 2026-05-07 14:33 | 48.34516 | 8.68381 | 12018 ft | 169 kts | 236° |
| 2026-05-07 14:33 | 48.33837 | 8.66967 | 12022 ft | 169 kts | 236° |
| 2026-05-07 14:34 | 48.33147 | 8.65532 | 12020 ft | 169 kts | 236° |
| 2026-05-07 14:34 | 48.32459 | 8.64099 | 12019 ft | 169 kts | 236° |
| 2026-05-07 14:34 | 48.31772 | 8.62671 | 12017 ft | 168 kts | 236° |
| 2026-05-07 14:34 | 48.31086 | 8.61247 | 12019 ft | 168 kts | 235° |
| 2026-05-07 14:35 | 48.30400 | 8.59823 | 12019 ft | 168 kts | 235° |
| 2026-05-07 14:35 | 48.29716 | 8.58399 | 12022 ft | 168 kts | 236° |
| 2026-05-07 14:35 | 48.29028 | 8.56972 | 12020 ft | 169 kts | 235° |
| 2026-05-07 14:35 | 48.28342 | 8.55548 | 12021 ft | 168 kts | 236° |
| 2026-05-07 14:36 | 48.27657 | 8.54128 | 12021 ft | 168 kts | 235° |
| 2026-05-07 14:36 | 48.26972 | 8.52709 | 12024 ft | 168 kts | 235° |
| 2026-05-07 14:36 | 48.26286 | 8.51288 | 12025 ft | 168 kts | 235° |
| 2026-05-07 14:36 | 48.25606 | 8.49880 | 12025 ft | 169 kts | 235° |
| 2026-05-07 14:37 | 48.24916 | 8.48453 | 12028 ft | 169 kts | 235° |
| 2026-05-07 14:37 | 48.23535 | 8.45599 | 12026 ft | 169 kts | 235° |
| 2026-05-07 14:37 | 48.22843 | 8.44170 | 12026 ft | 169 kts | 235° |
| 2026-05-07 14:38 | 48.22153 | 8.42744 | 12025 ft | 169 kts | 235° |
| 2026-05-07 14:38 | 48.21461 | 8.41317 | 12025 ft | 169 kts | 235° |
| 2026-05-07 14:38 | 48.20766 | 8.39884 | 12027 ft | 170 kts | 235° |
| 2026-05-07 14:38 | 48.20071 | 8.38449 | 12030 ft | 170 kts | 235° |
| 2026-05-07 14:39 | 48.19373 | 8.37011 | 12026 ft | 171 kts | 235° |
| 2026-05-07 14:39 | 48.18674 | 8.35574 | 12026 ft | 170 kts | 235° |
| 2026-05-07 14:39 | 48.17978 | 8.34141 | 12029 ft | 170 kts | 235° |
| 2026-05-07 14:39 | 48.17273 | 8.32718 | 12023 ft | 170 kts | 231° |
| 2026-05-07 14:40 | 48.16356 | 8.31603 | 12027 ft | 172 kts | 212° |
| 2026-05-07 14:40 | 48.15305 | 8.30750 | 12026 ft | 172 kts | 211° |
| 2026-05-07 14:40 | 48.14255 | 8.29892 | 12024 ft | 172 kts | 211° |
| 2026-05-07 14:40 | 48.13203 | 8.29035 | 12028 ft | 172 kts | 211° |
| 2026-05-07 14:41 | 48.12148 | 8.28179 | 12028 ft | 172 kts | 211° |
| 2026-05-07 14:41 | 48.11094 | 8.27323 | 12030 ft | 173 kts | 211° |
| 2026-05-07 14:41 | 48.10054 | 8.26478 | 12028 ft | 173 kts | 211° |
| 2026-05-07 14:41 | 48.08999 | 8.25621 | 12027 ft | 172 kts | 211° |
| 2026-05-07 14:42 | 48.07949 | 8.24768 | 12026 ft | 172 kts | 211° |
| 2026-05-07 14:42 | 48.06902 | 8.23920 | 12029 ft | 171 kts | 211° |
| 2026-05-07 14:42 | 48.05858 | 8.23074 | 12028 ft | 171 kts | 211° |
| 2026-05-07 14:42 | 48.04811 | 8.22225 | 12028 ft | 171 kts | 211° |
| 2026-05-07 14:43 | 48.03766 | 8.21378 | 12024 ft | 171 kts | 211° |
| 2026-05-07 14:43 | 48.02720 | 8.20531 | 12024 ft | 171 kts | 211° |
| 2026-05-07 14:43 | 48.01674 | 8.19685 | 12027 ft | 171 kts | 211° |
| 2026-05-07 14:43 | 48.00622 | 8.18833 | 12024 ft | 172 kts | 211° |
| 2026-05-07 14:44 | 47.99572 | 8.17985 | 12026 ft | 171 kts | 211° |
| 2026-05-07 14:44 | 47.98523 | 8.17138 | 12030 ft | 172 kts | 211° |
| 2026-05-07 14:44 | 47.97473 | 8.16289 | 12026 ft | 171 kts | 211° |
| 2026-05-07 14:44 | 47.96424 | 8.15441 | 12029 ft | 172 kts | 211° |
| 2026-05-07 14:45 | 47.95386 | 8.14602 | 12022 ft | 172 kts | 211° |
| 2026-05-07 14:45 | 47.94337 | 8.13758 | 12025 ft | 171 kts | 211° |
| 2026-05-07 14:45 | 47.93292 | 8.12916 | 12028 ft | 170 kts | 211° |
| 2026-05-07 14:45 | 47.92247 | 8.12074 | 12026 ft | 171 kts | 211° |
| 2026-05-07 14:46 | 47.91197 | 8.11227 | 12025 ft | 172 kts | 211° |
| 2026-05-07 14:46 | 47.90147 | 8.10381 | 12027 ft | 172 kts | 211° |
| 2026-05-07 14:46 | 47.89097 | 8.09537 | 12030 ft | 171 kts | 211° |
| 2026-05-07 14:46 | 47.88049 | 8.08693 | 12026 ft | 171 kts | 211° |
| 2026-05-07 14:47 | 47.87001 | 8.07851 | 12026 ft | 171 kts | 211° |
| 2026-05-07 14:47 | 47.85952 | 8.07009 | 12025 ft | 171 kts | 211° |
| 2026-05-07 14:47 | 47.84919 | 8.06179 | 12024 ft | 172 kts | 211° |
| 2026-05-07 14:47 | 47.83882 | 8.05346 | 12032 ft | 168 kts | 211° |
| 2026-05-07 14:48 | 47.82849 | 8.04516 | 12020 ft | 168 kts | 211° |
| 2026-05-07 14:48 | 47.81826 | 8.03698 | 12029 ft | 167 kts | 211° |
| 2026-05-07 14:48 | 47.80795 | 8.02870 | 12025 ft | 169 kts | 211° |
| 2026-05-07 14:48 | 47.79757 | 8.02036 | 12023 ft | 170 kts | 211° |
| 2026-05-07 14:49 | 47.78717 | 8.01203 | 12025 ft | 170 kts | 211° |
| 2026-05-07 14:49 | 47.77674 | 8.00368 | 12024 ft | 170 kts | 211° |
| 2026-05-07 14:49 | 47.76629 | 7.99534 | 12025 ft | 171 kts | 211° |
| 2026-05-07 14:49 | 47.75584 | 7.98697 | 12024 ft | 171 kts | 211° |
| 2026-05-07 14:50 | 47.74536 | 7.97858 | 12020 ft | 171 kts | 211° |
| 2026-05-07 14:50 | 47.73491 | 7.97023 | 12021 ft | 171 kts | 211° |
| 2026-05-07 14:50 | 47.72446 | 7.96188 | 12015 ft | 170 kts | 211° |
| 2026-05-07 14:50 | 47.71402 | 7.95355 | 12021 ft | 170 kts | 211° |
| 2026-05-07 14:51 | 47.70358 | 7.94521 | 12016 ft | 170 kts | 211° |
| 2026-05-07 14:51 | 47.69329 | 7.93699 | 12018 ft | 170 kts | 211° |
| 2026-05-07 14:51 | 47.68287 | 7.92870 | 12016 ft | 170 kts | 211° |
| 2026-05-07 14:51 | 47.67243 | 7.92038 | 12017 ft | 170 kts | 211° |
| 2026-05-07 14:52 | 47.66201 | 7.91208 | 12015 ft | 170 kts | 211° |
| 2026-05-07 14:52 | 47.65156 | 7.90374 | 12016 ft | 171 kts | 211° |
| 2026-05-07 14:52 | 47.64109 | 7.89540 | 12013 ft | 171 kts | 211° |
| 2026-05-07 14:52 | 47.63062 | 7.88708 | 12011 ft | 170 kts | 211° |
| 2026-05-07 14:53 | 47.62021 | 7.87881 | 12014 ft | 170 kts | 211° |
| 2026-05-07 14:53 | 47.60978 | 7.87051 | 12015 ft | 170 kts | 211° |
| 2026-05-07 14:53 | 47.59934 | 7.86222 | 12010 ft | 170 kts | 211° |
| 2026-05-07 14:53 | 47.58890 | 7.85393 | 12014 ft | 170 kts | 211° |
| 2026-05-07 14:54 | 47.57846 | 7.84563 | 12013 ft | 170 kts | 211° |
| 2026-05-07 14:54 | 47.56816 | 7.83746 | 12014 ft | 170 kts | 211° |
| 2026-05-07 14:54 | 47.55771 | 7.82918 | 12010 ft | 170 kts | 211° |
| 2026-05-07 14:54 | 47.54726 | 7.82089 | 12011 ft | 170 kts | 211° |
| 2026-05-07 14:55 | 47.53682 | 7.81262 | 12010 ft | 170 kts | 211° |
| 2026-05-07 14:55 | 47.52638 | 7.80434 | 12013 ft | 171 kts | 211° |
| 2026-05-07 14:55 | 47.51591 | 7.79607 | 12012 ft | 170 kts | 211° |
| 2026-05-07 14:55 | 47.50544 | 7.78780 | 12012 ft | 171 kts | 211° |
| 2026-05-07 14:56 | 47.49496 | 7.77950 | 12014 ft | 171 kts | 211° |
| 2026-05-07 14:56 | 47.48448 | 7.77122 | 12011 ft | 171 kts | 211° |
| 2026-05-07 14:56 | 47.47548 | 7.76409 | 12013 ft | 170 kts | 211° |
| 2026-05-07 14:56 | 47.46501 | 7.75581 | 12009 ft | 170 kts | 211° |
| 2026-05-07 14:57 | 47.45457 | 7.74757 | 12014 ft | 171 kts | 211° |
| 2026-05-07 14:57 | 47.44409 | 7.73931 | 12011 ft | 171 kts | 211° |
| 2026-05-07 14:57 | 47.43359 | 7.73103 | 12014 ft | 171 kts | 211° |
| 2026-05-07 14:57 | 47.42314 | 7.72273 | 12009 ft | 170 kts | 211° |
| 2026-05-07 14:58 | 47.41274 | 7.71456 | 12011 ft | 169 kts | 210° |
| 2026-05-07 14:58 | 47.40236 | 7.70640 | 12010 ft | 169 kts | 211° |
| 2026-05-07 14:58 | 47.39194 | 7.69821 | 12011 ft | 170 kts | 211° |
| 2026-05-07 14:58 | 47.38170 | 7.69014 | 12012 ft | 168 kts | 210° |
| 2026-05-07 14:59 | 47.37137 | 7.68202 | 12016 ft | 169 kts | 210° |
| 2026-05-07 14:59 | 47.36099 | 7.67386 | 12016 ft | 170 kts | 210° |
| 2026-05-07 14:59 | 47.35053 | 7.66563 | 12004 ft | 171 kts | 210° |
| 2026-05-07 14:59 | 47.34005 | 7.65739 | 12000 ft | 171 kts | 210° |
| 2026-05-07 15:00 | 47.33310 | 7.65195 | 12001 ft | 170 kts | 210° |
| 2026-05-07 15:00 | 47.31907 | 7.64094 | 11999 ft | 171 kts | 210° |
| 2026-05-07 15:00 | 47.31212 | 7.63550 | 11997 ft | 171 kts | 210° |
| 2026-05-07 15:00 | 47.30147 | 7.62770 | 11995 ft | 172 kts | 203° |
| 2026-05-07 15:01 | 47.29026 | 7.62158 | 11992 ft | 171 kts | 203° |
| 2026-05-07 15:01 | 47.27913 | 7.61539 | 11999 ft | 171 kts | 203° |
| 2026-05-07 15:01 | 47.26438 | 7.60715 | 11996 ft | 172 kts | 203° |
| 2026-05-07 15:01 | 47.25319 | 7.60093 | 11995 ft | 172 kts | 203° |
| 2026-05-07 15:02 | 47.24563 | 7.59672 | 11995 ft | 172 kts | 203° |
| 2026-05-07 15:02 | 47.23446 | 7.59050 | 11992 ft | 172 kts | 203° |
| 2026-05-07 15:02 | 47.22330 | 7.58431 | 11990 ft | 171 kts | 203° |
| 2026-05-07 15:02 | 47.21232 | 7.57821 | 11989 ft | 171 kts | 203° |
| 2026-05-07 15:03 | 47.20119 | 7.57203 | 11990 ft | 171 kts | 203° |
| 2026-05-07 15:03 | 47.19009 | 7.56588 | 11988 ft | 170 kts | 203° |
| 2026-05-07 15:03 | 47.17898 | 7.55971 | 11988 ft | 171 kts | 203° |
| 2026-05-07 15:03 | 47.16785 | 7.55354 | 11987 ft | 171 kts | 203° |
| 2026-05-07 15:04 | 47.15671 | 7.54737 | 11994 ft | 171 kts | 203° |
| 2026-05-07 15:04 | 47.14557 | 7.54120 | 11991 ft | 171 kts | 203° |
| 2026-05-07 15:04 | 47.13445 | 7.53504 | 11992 ft | 171 kts | 203° |
| 2026-05-07 15:04 | 47.12332 | 7.52889 | 11994 ft | 171 kts | 203° |
| 2026-05-07 15:05 | 47.11217 | 7.52273 | 11991 ft | 171 kts | 203° |
| 2026-05-07 15:05 | 47.10103 | 7.51657 | 11995 ft | 171 kts | 203° |
| 2026-05-07 15:05 | 47.08987 | 7.51039 | 11991 ft | 171 kts | 203° |
| 2026-05-07 15:05 | 47.07887 | 7.50431 | 11995 ft | 171 kts | 203° |
| 2026-05-07 15:06 | 47.06771 | 7.49816 | 11995 ft | 171 kts | 203° |
| 2026-05-07 15:06 | 47.05657 | 7.49201 | 11993 ft | 171 kts | 203° |
| 2026-05-07 15:06 | 47.04540 | 7.48585 | 11992 ft | 171 kts | 203° |
| 2026-05-07 15:06 | 47.03424 | 7.47970 | 11994 ft | 171 kts | 203° |
| 2026-05-07 15:07 | 47.02307 | 7.47354 | 11992 ft | 172 kts | 203° |
| 2026-05-07 15:07 | 47.01191 | 7.46739 | 11989 ft | 171 kts | 203° |
| 2026-05-07 15:07 | 47.00076 | 7.46124 | 11990 ft | 171 kts | 203° |
| 2026-05-07 15:07 | 46.98953 | 7.45506 | 11998 ft | 173 kts | 202° |
| 2026-05-07 15:08 | 46.97814 | 7.44878 | 11998 ft | 176 kts | 202° |
| 2026-05-07 15:08 | 46.96660 | 7.44245 | 11997 ft | 177 kts | 203° |
| 2026-05-07 15:08 | 46.95504 | 7.43610 | 11993 ft | 178 kts | 202° |
| 2026-05-07 15:08 | 46.94347 | 7.42975 | 11994 ft | 177 kts | 202° |
| 2026-05-07 15:09 | 46.93197 | 7.42344 | 11987 ft | 176 kts | 202° |
| 2026-05-07 15:09 | 46.92070 | 7.41726 | 11990 ft | 175 kts | 202° |
| 2026-05-07 15:09 | 46.90917 | 7.41093 | 11989 ft | 174 kts | 202° |
| 2026-05-07 15:09 | 46.89796 | 7.40478 | 11993 ft | 175 kts | 202° |
| 2026-05-07 15:10 | 46.88659 | 7.39854 | 11986 ft | 174 kts | 202° |
| 2026-05-07 15:10 | 46.87526 | 7.39233 | 11988 ft | 174 kts | 202° |
| 2026-05-07 15:10 | 46.86399 | 7.38617 | 11991 ft | 173 kts | 202° |
| 2026-05-07 15:10 | 46.85273 | 7.38001 | 11991 ft | 172 kts | 202° |
| 2026-05-07 15:11 | 46.84177 | 7.37401 | 11993 ft | 172 kts | 202° |
| 2026-05-07 15:11 | 46.83055 | 7.36786 | 11992 ft | 172 kts | 202° |
| 2026-05-07 15:11 | 46.81936 | 7.36175 | 11992 ft | 172 kts | 202° |
| 2026-05-07 15:11 | 46.80817 | 7.35563 | 11992 ft | 172 kts | 202° |
| 2026-05-07 15:12 | 46.79684 | 7.34944 | 11871 ft | 177 kts | 202° |
| 2026-05-07 15:12 | 46.78534 | 7.34313 | 11666 ft | 176 kts | 202° |
| 2026-05-07 15:12 | 46.77408 | 7.33701 | 11463 ft | 174 kts | 202° |
| 2026-05-07 15:12 | 46.76277 | 7.33088 | 11268 ft | 173 kts | 202° |
| 2026-05-07 15:13 | 46.75154 | 7.32475 | 11070 ft | 172 kts | 202° |
| 2026-05-07 15:13 | 46.74037 | 7.31864 | 10869 ft | 171 kts | 202° |
| 2026-05-07 15:13 | 46.72927 | 7.31261 | 10675 ft | 170 kts | 202° |
| 2026-05-07 15:13 | 46.71816 | 7.30657 | 10477 ft | 171 kts | 202° |
| 2026-05-07 15:14 | 46.70710 | 7.30054 | 10282 ft | 169 kts | 202° |
| 2026-05-07 15:14 | 46.69617 | 7.29460 | 10083 ft | 167 kts | 201° |
| 2026-05-07 15:14 | 46.68530 | 7.28868 | 9894 ft | 167 kts | 201° |
| 2026-05-07 15:14 | 46.67439 | 7.28276 | 9686 ft | 167 kts | 202° |
| 2026-05-07 15:15 | 46.66347 | 7.27681 | 9474 ft | 168 kts | 201° |
| 2026-05-07 15:15 | 46.65257 | 7.27089 | 9261 ft | 166 kts | 202° |
| 2026-05-07 15:15 | 46.64175 | 7.26502 | 9048 ft | 166 kts | 201° |
| 2026-05-07 15:15 | 46.63120 | 7.25930 | 9020 ft | 157 kts | 202° |
| 2026-05-07 15:16 | 46.62139 | 7.25398 | 9014 ft | 150 kts | 201° |
| 2026-05-07 15:16 | 46.61561 | 7.25086 | 9013 ft | 148 kts | 202° |
| 2026-05-07 15:22 | 46.60951 | 7.24754 | 9009 ft | 146 kts | 201° |
| 2026-05-07 15:22 | 46.59957 | 7.24584 | 9009 ft | 147 kts | 174° |
| 2026-05-07 15:22 | 46.58947 | 7.24857 | 9013 ft | 148 kts | 171° |
| 2026-05-07 15:23 | 46.57924 | 7.25155 | 9012 ft | 151 kts | 172° |
| 2026-05-07 15:23 | 46.56893 | 7.25460 | 8998 ft | 151 kts | 170° |
| 2026-05-07 15:23 | 46.55854 | 7.25791 | 8891 ft | 155 kts | 173° |
| 2026-05-07 15:23 | 46.54774 | 7.25886 | 8707 ft | 157 kts | 181° |
| 2026-05-07 15:24 | 46.53660 | 7.25847 | 8452 ft | 164 kts | 184° |
| 2026-05-07 15:24 | 46.52552 | 7.25772 | 8129 ft | 155 kts | 185° |
| 2026-05-07 15:24 | 46.51479 | 7.25660 | 7641 ft | 157 kts | 182° |
| 2026-05-07 15:24 | 46.50391 | 7.25758 | 7144 ft | 157 kts | 176° |
| 2026-05-07 15:25 | 46.49321 | 7.25820 | 6806 ft | 142 kts | 182° |
| 2026-05-07 15:25 | 46.48413 | 7.25879 | 6499 ft | 125 kts | 173° |
| 2026-05-07 15:25 | 46.47576 | 7.26096 | 6030 ft | 123 kts | 161° |
| 2026-05-07 15:25 | 46.47023 | 7.26967 | 5620 ft | 115 kts | 115° |
| 2026-05-07 15:26 | 46.47076 | 7.28078 | 5425 ft | 118 kts | 47° |
| 2026-05-07 15:26 | 46.47810 | 7.28182 | 5026 ft | 106 kts | 341° |
| 2026-05-07 15:26 | 46.48474 | 7.27983 | 4680 ft | 98 kts | 331° |
| 2026-05-07 15:26 | 46.48909 | 7.27275 | 4263 ft | 95 kts | 283° |
| 2026-05-07 15:27 | 46.48835 | 7.26317 | 3776 ft | 96 kts | 264° |
| 2026-05-07 15:27 | 46.48727 | 7.25412 | 3400 ft | 85 kts | 262° |
| 2026-05-07 15:27 | 46.48648 | 7.24745 | 3350 ft | 49 kts | 257° |
| 2026-05-07 15:27 | 46.48654 | 7.24605 | 3349 ft | 6 kts | 339° |
| 2026-05-07 15:28 | 46.48675 | 7.24598 | 3350 ft | 2 kts | 349° |
| 2026-05-07 15:28 | 46.48682 | 7.24596 | 3349 ft | 0 kts | 349° |